Time;durP1;ratioP1;P1;durP2;ratioP2;P2;SDS_P1;SDS_P2;PMS_P1;PMS_P2;Temp;Humidity;BMP_temperature;BMP_pressure;BME280_temperature;BME280_humidity;BME280_pressure;Samples;Min_cycle;Max_cycle;Signal;HPM_P1;HPM_P2
2022/02/01 00:00:24;;;;;;;1.40;1.30;;;;;;;18.64;49.13;96931.22;6299322;22;20198;-87
2022/02/01 00:02:58;;;;;;;1.50;1.40;;;;;;;18.78;48.92;96963.94;6250557;22;20430;-87
2022/02/01 00:08:12;;;;;;;1.43;1.27;;;;;;;18.39;48.77;96901.63;6273709;22;20572;-86
2022/02/01 00:37:19;;;;;;;1.10;1.10;;;;;;;18.05;48.69;96861.50;6332621;22;20279;-86
2022/02/01 00:39:46;;;;;;;1.30;1.20;;;;;;;17.68;48.84;96809.41;6308427;22;20586;-85
2022/02/01 00:42:14;;;;;;;1.47;1.37;;;;;;;18.19;48.87;96905.16;6307175;22;20643;-85
2022/02/01 00:44:43;;;;;;;1.00;1.00;;;;;;;17.63;48.83;96806.72;6282023;22;20198;-85
2022/02/01 00:47:11;;;;;;;1.40;1.30;;;;;;;16.96;48.77;96697.75;6332869;22;20710;-85
2022/02/01 00:49:38;;;;;;;1.10;1.07;;;;;;;15.66;48.76;96489.47;6306675;22;20176;-85
2022/02/01 00:52:07;;;;;;;1.03;1.03;;;;;;;17.66;48.52;96829.69;6282857;22;20215;-91
2022/02/01 01:54:06;;;;;;;0.93;0.90;;;;;;;18.86;48.14;97114.38;6288654;22;20227;-84
2022/02/01 01:56:33;;;;;;;1.17;1.13;;;;;;;17.58;48.12;96907.31;6306036;22;20233;-85
2022/02/01 01:59:01;;;;;;;1.40;1.30;;;;;;;19.08;48.13;97170.28;6280674;22;20166;-84
2022/02/01 02:01:28;;;;;;;1.03;0.93;;;;;;;18.13;48.07;97007.56;6279309;22;20198;-84
2022/02/01 02:03:55;;;;;;;1.00;1.00;;;;;;;18.22;48.52;97022.25;6280130;22;20396;-84
2022/02/01 02:06:21;;;;;;;1.17;1.07;;;;;;;18.21;48.17;97021.38;6252206;22;20232;-85
2022/02/01 02:08:52;;;;;;;1.40;1.30;;;;;;;17.78;47.98;96966.44;6254951;22;20194;-85
2022/02/01 02:14:21;;;;;;;1.00;1.00;;;;;;;18.62;47.77;97098.28;6287603;22;20241;-84
2022/02/01 02:16:56;;;;;;;1.33;1.23;;;;;;;18.23;47.76;97042.66;6261719;22;20536;-84
2022/02/01 02:19:24;;;;;;;1.30;1.20;;;;;;;18.91;47.74;97161.19;6256141;22;20224;-84
2022/02/01 02:21:59;;;;;;;1.10;1.10;;;;;;;16.24;47.82;96729.78;6280571;22;20239;-85
2022/02/01 02:24:27;;;;;;;1.30;1.10;;;;;;;17.07;47.63;96838.56;6254474;22;20207;-84
2022/02/01 02:26:55;;;;;;;1.20;1.10;;;;;;;18.27;47.81;97105.50;6279716;22;20174;-86
2022/02/01 02:29:22;;;;;;;0.93;0.93;;;;;;;18.64;48.04;97122.97;6305493;22;20582;-84
2022/02/01 02:31:49;;;;;;;1.03;1.03;;;;;;;18.37;47.60;97098.19;6280567;22;20471;-84
2022/02/01 02:34:16;;;;;;;1.10;1.10;;;;;;;18.43;48.00;97111.16;6279173;22;20209;-84
2022/02/01 02:36:48;;;;;;;0.97;0.97;;;;;;;17.86;47.78;97023.50;6255064;22;20194;-85
2022/02/01 02:42:04;;;;;;;0.90;0.90;;;;;;;18.82;47.79;97199.94;6281646;22;20578;-84
2022/02/01 02:47:16;;;;;;;1.20;1.10;;;;;;;17.96;47.80;97054.41;6309329;22;20182;-84
2022/02/01 02:49:43;;;;;;;1.17;1.10;;;;;;;17.97;47.84;97063.75;6333088;22;20642;-84
2022/02/01 02:52:09;;;;;;;1.07;0.90;;;;;;;17.54;47.70;96985.91;6330570;22;20505;-85
2022/02/01 02:54:37;;;;;;;0.80;0.80;;;;;;;18.53;47.84;97200.59;6330398;22;20194;-85
2022/02/01 02:57:05;;;;;;;1.00;1.00;;;;;;;17.82;47.78;97042.84;6330597;22;20245;-84
2022/02/01 02:59:32;;;;;;;0.90;0.90;;;;;;;17.25;47.81;96946.72;6279958;22;20174;-84
2022/02/01 03:01:59;;;;;;;1.00;1.00;;;;;;;18.95;47.75;97250.47;6306261;22;20452;-84
2022/02/01 03:04:28;;;;;;;1.27;1.17;;;;;;;17.43;47.76;97010.00;6304374;22;20607;-85
2022/02/01 03:06:55;;;;;;;1.30;1.20;;;;;;;17.50;47.92;97052.66;6279292;22;20190;-84
2022/02/01 03:09:22;;;;;;;1.20;1.20;;;;;;;16.40;47.83;96830.97;6330445;22;20266;-85
2022/02/01 03:11:51;;;;;;;1.10;1.10;;;;;;;17.03;47.85;96945.88;6280528;22;20228;-85
2022/02/01 03:14:24;;;;;;;1.00;1.00;;;;;;;16.79;47.98;96917.03;6279568;22;20209;-86
2022/02/01 03:17:05;;;;;;;0.90;0.90;;;;;;;16.94;48.04;96948.06;6284058;22;20169;-85
2022/02/01 03:19:50;;;;;;;1.10;1.00;;;;;;;17.84;47.98;97116.63;6308102;22;20172;-85
2022/02/01 03:22:27;;;;;;;1.10;1.00;;;;;;;18.00;47.95;97165.53;6287597;22;20194;-84
2022/02/01 03:35:41;;;;;;;0.90;0.90;;;;;;;14.70;48.11;96630.75;6338577;22;20172;-89
2022/02/01 03:46:24;;;;;;;0.90;0.90;;;;;;;15.52;47.85;96878.91;6316430;22;20181;-90
2022/02/01 03:54:21;;;;;;;1.10;1.10;;;;;;;14.80;47.63;96705.34;6298323;22;20198;-84
2022/02/01 03:56:48;;;;;;;1.00;1.00;;;;;;;15.92;47.58;96876.31;6253358;22;20170;-84
2022/02/01 03:59:14;;;;;;;0.87;0.87;;;;;;;18.30;47.61;97300.63;6304995;22;20494;-84
2022/02/01 04:01:41;;;;;;;1.10;1.00;;;;;;;17.73;47.79;97200.09;6252916;22;20174;-85
2022/02/01 04:04:08;;;;;;;1.00;1.00;;;;;;;19.00;47.73;97411.06;6253775;22;20208;-84
2022/02/01 04:06:35;;;;;;;1.00;1.00;;;;;;;18.27;47.25;97284.38;6279659;22;20237;-87
2022/02/01 04:09:04;;;;;;;1.10;1.10;;;;;;;16.99;47.61;97098.88;6253968;22;20194;-84
2022/02/01 04:11:31;;;;;;;1.10;1.00;;;;;;;16.87;47.40;97053.53;6253702;22;20544;-85
2022/02/01 04:13:58;;;;;;;1.23;1.13;;;;;;;19.04;47.55;97438.41;6253021;22;20645;-85
2022/02/01 04:16:25;;;;;;;1.00;1.00;;;;;;;17.34;47.43;97162.94;6253849;22;20229;-84
2022/02/01 04:18:52;;;;;;;1.03;1.03;;;;;;;17.67;47.58;97206.59;6279094;22;20649;-85
2022/02/01 04:21:18;;;;;;;1.07;1.07;;;;;;;18.78;47.31;97396.69;6279298;22;20598;-84
2022/02/01 04:23:45;;;;;;;1.30;1.20;;;;;;;17.66;47.02;97204.88;6253624;22;20173;-85
2022/02/01 04:26:12;;;;;;;1.20;1.10;;;;;;;16.86;47.57;97105.09;6253824;22;20219;-85
2022/02/01 04:28:38;;;;;;;1.33;1.23;;;;;;;17.89;47.55;97232.91;6278806;22;20253;-85
2022/02/01 04:31:05;;;;;;;1.40;1.30;;;;;;;18.61;47.47;97354.44;6304479;22;20198;-85
2022/02/01 04:33:32;;;;;;;1.13;1.10;;;;;;;16.76;47.34;97029.44;6278529;22;20178;-85
2022/02/01 04:36:05;;;;;;;1.00;1.00;;;;;;;18.70;47.38;97366.66;6282340;22;20190;-85
2022/02/01 04:38:34;;;;;;;1.43;1.33;;;;;;;17.70;47.09;97199.09;6303873;22;20166;-84
2022/02/01 04:41:01;;;;;;;1.40;1.20;;;;;;;18.09;47.04;97264.22;6304455;22;20170;-84
2022/02/01 04:43:28;;;;;;;1.57;1.47;;;;;;;17.70;47.20;97202.50;6304597;22;20227;-85
2022/02/01 04:45:55;;;;;;;1.30;1.20;;;;;;;18.68;47.16;97409.00;6279033;22;20745;-85
2022/02/01 04:48:24;;;;;;;1.20;1.10;;;;;;;17.72;47.06;97222.91;6255189;22;20676;-85
2022/02/01 04:50:51;;;;;;;1.40;1.30;;;;;;;18.77;47.21;97404.28;6279289;22;20247;-84
2022/02/01 04:53:17;;;;;;;1.40;1.30;;;;;;;18.34;46.95;97335.56;6308155;22;20529;-85
2022/02/01 04:58:13;;;;;;;1.30;1.20;;;;;;;18.58;47.21;97389.97;6330105;22;20165;-84
2022/02/01 05:00:40;;;;;;;1.57;1.47;;;;;;;17.82;47.16;97286.88;6305069;22;20641;-85
2022/02/01 05:03:07;;;;;;;1.60;1.50;;;;;;;18.61;47.22;97395.16;6304786;22;20228;-86
2022/02/01 05:05:34;;;;;;;1.13;1.13;;;;;;;17.00;47.23;97149.69;6304012;22;20301;-85
2022/02/01 05:08:07;;;;;;;1.53;1.43;;;;;;;18.04;46.87;97304.72;6329347;22;20197;-85
2022/02/01 05:10:34;;;;;;;1.70;1.60;;;;;;;17.52;46.82;97206.88;6279699;22;20493;-85
2022/02/01 05:13:28;;;;;;;1.50;1.40;;;;;;;18.55;46.90;97397.47;6303989;22;20221;-85
2022/02/01 05:15:49;;;;;;;1.77;1.67;;;;;;;17.27;47.08;97176.19;6309233;22;20210;-85
2022/02/01 05:18:24;;;;;;;1.80;1.70;;;;;;;17.38;47.01;97235.03;6278843;22;20174;-85
2022/02/01 05:20:58;;;;;;;1.70;1.60;;;;;;;18.59;46.94;97445.13;6308038;22;20554;-86
2022/02/01 05:23:25;;;;;;;2.27;1.97;;;;;;;18.54;46.69;97445.78;6307714;22;20196;-85
2022/02/01 05:25:52;;;;;;;2.50;2.30;;;;;;;17.37;45.95;97251.06;6279878;22;20190;-85
2022/02/01 05:28:19;;;;;;;2.73;2.50;;;;;;;17.18;45.45;97224.06;6305565;22;20190;-85
2022/02/01 05:30:46;;;;;;;3.60;2.60;;;;;;;16.99;44.79;97180.09;6331166;22;20565;-86
2022/02/01 05:33:16;;;;;;;5.20;3.30;;;;;;;17.57;45.09;97280.72;6305051;22;20230;-86
2022/02/01 05:35:42;;;;;;;4.60;3.20;;;;;;;18.13;44.56;97416.97;6306740;22;20211;-85
2022/02/01 05:38:10;;;;;;;6.97;3.40;;;;;;;18.90;44.30;97527.00;6331703;22;20179;-86
2022/02/01 05:40:37;;;;;;;6.10;3.20;;;;;;;17.79;44.41;97339.25;6332014;22;20178;-86
2022/02/01 05:43:13;;;;;;;5.77;3.50;;;;;;;18.62;43.95;97495.31;6333229;22;20181;-85
2022/02/01 05:45:43;;;;;;;5.17;3.87;;;;;;;17.61;43.76;97318.16;6307754;22;20214;-85
2022/02/01 05:48:10;;;;;;;3.83;3.47;;;;;;;17.75;43.51;97361.13;6335082;22;20581;-85
2022/02/01 05:50:38;;;;;;;5.97;3.80;;;;;;;17.19;43.65;97242.69;6309473;22;20162;-85
2022/02/01 05:53:05;;;;;;;4.17;3.80;;;;;;;18.27;43.37;97443.81;6310000;22;20276;-84
2022/02/01 05:55:34;;;;;;;7.10;4.03;;;;;;;18.06;43.47;97389.53;6309930;22;20202;-85
2022/02/01 05:58:01;;;;;;;4.07;3.67;;;;;;;17.91;43.48;97421.09;6310139;22;20162;-86
2022/02/01 06:00:28;;;;;;;5.13;4.60;;;;;;;18.15;41.67;97450.09;6308628;22;20211;-88
2022/02/01 06:02:55;;;;;;;6.83;5.43;;;;;;;18.24;40.95;97455.56;6284013;22;20178;-86
2022/02/01 06:05:22;;;;;;;6.27;5.70;;;;;;;18.02;40.34;97414.78;6283989;22;20186;-86
2022/02/01 06:07:48;;;;;;;6.20;5.50;;;;;;;17.57;40.41;97336.63;6284230;22;20185;-87
2022/02/01 06:10:15;;;;;;;6.40;5.80;;;;;;;17.70;40.34;97349.03;6310057;22;20174;-86
2022/02/01 06:12:45;;;;;;;6.03;5.43;;;;;;;18.07;40.70;97416.72;6283149;22;20212;-86
2022/02/01 06:15:13;;;;;;;7.20;5.57;;;;;;;17.96;41.37;97411.97;6285239;22;20239;-87
2022/02/01 06:17:40;;;;;;;5.87;5.27;;;;;;;17.31;42.07;97304.16;6310150;22;20178;-87
2022/02/01 06:20:08;;;;;;;6.27;5.10;;;;;;;18.17;42.20;97477.31;6283569;22;20166;-85
2022/02/01 06:22:35;;;;;;;5.00;4.60;;;;;;;18.77;42.62;97565.50;6310091;22;20243;-84
2022/02/01 06:25:02;;;;;;;5.43;4.93;;;;;;;17.18;42.88;97310.41;6334051;22;20263;-85
2022/02/01 06:27:29;;;;;;;4.77;4.27;;;;;;;18.37;43.02;97489.97;6335744;22;20702;-85
2022/02/01 06:29:55;;;;;;;5.83;4.60;;;;;;;18.08;43.30;97443.88;6281644;22;20218;-85
2022/02/01 06:32:22;;;;;;;5.00;4.50;;;;;;;18.46;42.79;97514.16;6283186;22;20220;-85
2022/02/01 06:34:49;;;;;;;4.27;3.90;;;;;;;18.78;43.26;97571.47;6333014;22;20537;-80
2022/02/01 06:37:15;;;;;;;6.30;4.20;;;;;;;17.99;44.15;97429.91;6333162;22;20198;-83
2022/02/01 06:39:42;;;;;;;4.70;4.30;;;;;;;17.91;43.75;97429.59;6307853;22;20178;-85
2022/02/01 06:42:09;;;;;;;3.80;3.50;;;;;;;18.11;43.49;97460.94;6308263;22;20201;-84
2022/02/01 06:44:35;;;;;;;4.23;3.80;;;;;;;18.44;43.85;97520.00;6308288;22;20703;-84
2022/02/01 06:47:02;;;;;;;4.10;3.70;;;;;;;18.73;43.82;97578.03;6283224;22;20266;-84
2022/02/01 06:49:29;;;;;;;3.57;3.20;;;;;;;18.82;43.94;97604.75;6333901;22;20193;-85
2022/02/01 06:51:55;;;;;;;4.77;3.90;;;;;;;18.30;44.29;97521.06;6283069;22;20227;-85
2022/02/01 06:54:22;;;;;;;4.10;3.27;;;;;;;17.74;44.22;97410.22;6307971;22;20181;-85
2022/02/01 06:56:49;;;;;;;3.70;3.40;;;;;;;18.37;44.31;97502.69;6282286;22;20197;-82
2022/02/01 06:59:15;;;;;;;3.73;3.43;;;;;;;17.77;44.44;97414.59;6333948;22;20201;-85
2022/02/01 07:01:42;;;;;;;3.23;2.93;;;;;;;18.15;44.54;97467.91;6331809;22;20265;-85
2022/02/01 07:04:09;;;;;;;3.30;3.00;;;;;;;18.74;44.44;97564.53;6333303;22;20174;-88
2022/02/01 07:06:35;;;;;;;4.90;3.70;;;;;;;18.42;44.29;97521.63;6282045;22;20590;-85
2022/02/01 07:09:03;;;;;;;3.50;3.20;;;;;;;18.17;44.72;97477.31;6332765;22;20218;-85
2022/02/01 07:11:30;;;;;;;3.50;2.93;;;;;;;18.65;44.49;97579.44;6306364;22;20253;-86
2022/02/01 07:13:57;;;;;;;3.00;2.73;;;;;;;17.15;44.58;97309.38;6282141;22;20186;-86
2022/02/01 07:16:23;;;;;;;2.63;2.40;;;;;;;18.13;44.78;97494.94;6281738;22;20221;-86
2022/02/01 07:18:54;;;;;;;2.80;2.60;;;;;;;17.98;44.90;97490.09;6333069;22;20170;-85
2022/02/01 07:21:22;;;;;;;2.47;2.27;;;;;;;17.99;44.94;97470.59;6307482;22;20200;-85
2022/02/01 07:23:49;;;;;;;2.10;1.90;;;;;;;18.19;44.96;97518.97;6308073;22;20216;-85
2022/02/01 07:26:18;;;;;;;3.00;2.17;;;;;;;18.02;44.99;97507.19;6283034;22;20217;-84
2022/02/01 07:28:45;;;;;;;2.00;1.90;;;;;;;18.48;45.10;97594.00;6283789;22;20186;-86
2022/02/01 07:31:12;;;;;;;2.30;2.10;;;;;;;18.17;45.01;97525.66;6335768;22;20209;-87
2022/02/01 07:33:38;;;;;;;2.80;2.10;;;;;;;18.49;44.89;97582.13;6283771;22;20201;-86
2022/02/01 07:36:05;;;;;;;2.13;1.93;;;;;;;18.53;45.00;97589.94;6308692;22;20277;-85
2022/02/01 07:38:32;;;;;;;1.80;1.70;;;;;;;17.31;45.01;97363.44;6307185;22;20189;-86
2022/02/01 07:40:59;;;;;;;2.00;1.80;;;;;;;17.50;45.17;97393.09;6307104;22;20178;-86
2022/02/01 07:43:32;;;;;;;1.83;1.73;;;;;;;18.89;45.27;97636.44;6306878;22;20205;-85
2022/02/01 07:46:01;;;;;;;1.83;1.73;;;;;;;17.39;44.94;97382.44;6307459;22;20190;-86
2022/02/01 07:48:28;;;;;;;1.53;1.43;;;;;;;18.40;44.97;97554.63;6280531;22;20206;-86
2022/02/01 07:50:55;;;;;;;1.77;1.67;;;;;;;17.82;45.12;97456.28;6333395;22;20486;-85
2022/02/01 07:53:21;;;;;;;1.83;1.70;;;;;;;18.49;45.27;97579.56;6333192;22;20174;-86
2022/02/01 07:55:48;;;;;;;2.13;1.53;;;;;;;18.89;45.08;97639.84;6279304;22;20289;-85
2022/02/01 07:58:17;;;;;;;1.80;1.60;;;;;;;17.97;45.14;97472.22;6334722;22;20185;-86
2022/02/01 08:00:44;;;;;;;1.53;1.43;;;;;;;17.51;45.09;97390.59;6306886;22;20185;-85
2022/02/01 08:03:12;;;;;;;3.50;1.67;;;;;;;18.20;45.32;97512.19;6307827;22;20185;-85
2022/02/01 08:05:39;;;;;;;4.83;1.60;;;;;;;18.38;45.13;97542.66;6282466;22;20198;-86
2022/02/01 08:08:06;;;;;;;1.53;1.43;;;;;;;17.89;45.24;97474.41;6282333;22;20181;-86
2022/02/01 08:10:45;;;;;;;2.37;1.80;;;;;;;18.31;45.34;97555.88;6282436;22;20292;-86
2022/02/01 08:18:46;;;;;;;1.57;1.47;;;;;;;18.24;45.21;97558.16;6336398;22;20661;-84
2022/02/01 08:21:22;;;;;;;2.80;1.57;;;;;;;18.01;45.56;97519.84;6333790;22;20155;-84
2022/02/01 08:23:48;;;;;;;4.90;1.70;;;;;;;18.29;45.34;97565.97;6333471;22;20204;-84
2022/02/01 08:26:15;;;;;;;3.60;1.77;;;;;;;18.43;45.26;97590.38;6333162;22;20452;-85
2022/02/01 08:28:42;;;;;;;1.87;1.43;;;;;;;17.89;45.71;97504.91;6281625;22;20267;-85
2022/02/01 08:31:26;;;;;;;2.03;1.50;;;;;;;18.47;45.53;97616.84;6285565;22;20614;-85
2022/02/01 08:33:53;;;;;;;2.03;1.63;;;;;;;18.21;45.61;97580.06;6332296;22;20170;-85
2022/02/01 08:36:19;;;;;;;3.70;1.73;;;;;;;18.26;45.42;97595.53;6307202;22;20681;-85
2022/02/01 08:38:46;;;;;;;1.67;1.57;;;;;;;18.63;45.87;97673.53;6307575;22;20151;-84
2022/02/01 08:41:13;;;;;;;1.77;1.67;;;;;;;18.20;45.96;97601.19;6333253;22;20170;-86
2022/02/01 08:43:39;;;;;;;1.60;1.40;;;;;;;18.62;46.06;97687.06;6281066;22;20253;-84
2022/02/01 08:46:06;;;;;;;1.70;1.60;;;;;;;18.33;45.26;97635.69;6306840;22;20222;-85
2022/02/01 08:48:33;;;;;;;3.33;1.90;;;;;;;18.43;45.29;97641.28;6333096;22;20185;-85
2022/02/01 08:51:04;;;;;;;7.60;2.87;;;;;;;18.42;42.76;97623.41;6306805;22;20209;-85
2022/02/01 08:53:43;;;;;;;6.10;3.07;;;;;;;18.32;42.51;97613.59;6304809;22;20186;-86
2022/02/01 08:57:20;;;;;;;8.13;3.23;;;;;;;17.72;42.71;97505.88;6284429;22;20237;-86
2022/02/01 08:59:16;;;;;;;7.97;2.87;;;;;;;18.04;43.17;97563.22;6313772;22;20178;-86
2022/02/01 09:01:42;;;;;;;5.87;2.77;;;;;;;16.79;43.21;97364.50;6305703;22;20198;-86
2022/02/01 09:04:09;;;;;;;9.50;3.10;;;;;;;17.84;43.53;97536.03;6305012;22;20681;-86
2022/02/01 09:06:36;;;;;;;7.10;2.83;;;;;;;17.98;43.78;97563.81;6280174;22;20700;-86
2022/02/01 09:09:04;;;;;;;5.67;2.63;;;;;;;18.47;43.88;97648.22;6306084;22;20205;-86
2022/02/01 09:11:30;;;;;;;8.07;3.40;;;;;;;16.01;44.01;97224.75;6280167;22;20166;-86
2022/02/01 09:13:57;;;;;;;8.53;2.93;;;;;;;18.59;44.27;97665.72;6305225;22;20204;-86
2022/02/01 09:16:24;;;;;;;7.17;2.77;;;;;;;18.89;44.02;97698.41;6330856;22;20276;-84
2022/02/01 09:18:50;;;;;;;4.80;2.60;;;;;;;18.39;43.96;97618.16;6304701;22;20177;-86
2022/02/01 09:21:17;;;;;;;6.07;2.50;;;;;;;17.13;43.72;97405.81;6305108;22;20619;-86
2022/02/01 09:23:44;;;;;;;4.80;2.53;;;;;;;18.41;44.41;97630.16;6280304;22;20206;-86
2022/02/01 09:26:11;;;;;;;5.67;2.80;;;;;;;18.48;44.25;97652.53;6279955;22;20240;-85
2022/02/01 09:28:38;;;;;;;3.87;2.37;;;;;;;18.20;44.08;97598.66;6279960;22;20159;-85
2022/02/01 09:31:06;;;;;;;8.47;3.10;;;;;;;18.13;43.05;97591.56;6283790;22;20228;-84
2022/02/01 09:33:32;;;;;;;7.37;3.40;;;;;;;18.70;43.02;97707.75;6309228;22;20180;-86
2022/02/01 09:35:59;;;;;;;9.20;3.40;;;;;;;18.15;43.28;97603.53;6308746;22;20198;-85
2022/02/01 09:38:30;;;;;;;5.87;2.83;;;;;;;18.13;43.75;97604.28;6308864;22;20278;-86
2022/02/01 09:40:58;;;;;;;6.40;2.73;;;;;;;17.76;43.81;97544.97;6283444;22;20186;-85
2022/02/01 09:43:25;;;;;;;9.63;3.00;;;;;;;18.21;43.78;97631.78;6308537;22;20223;-85
2022/02/01 09:45:53;;;;;;;7.13;2.97;;;;;;;18.71;43.90;97710.38;6308172;22;20225;-84
2022/02/01 09:48:40;;;;;;;6.17;2.77;;;;;;;18.26;44.04;97634.53;6289604;22;20185;-87
2022/02/01 09:51:08;;;;;;;8.73;2.63;;;;;;;18.53;44.26;97678.19;6307659;22;20208;-85
2022/02/01 09:53:35;;;;;;;3.97;2.27;;;;;;;18.57;43.87;97685.13;6284252;22;20174;-86
2022/02/01 09:56:02;;;;;;;5.67;2.50;;;;;;;18.23;44.13;97612.38;6284143;22;20281;-86
2022/02/01 09:58:33;;;;;;;7.73;2.77;;;;;;;18.65;44.23;97684.63;6284189;22;20174;-88
2022/02/01 10:01:02;;;;;;;7.00;3.00;;;;;;;17.34;44.28;97449.03;6280836;22;20159;-87
2022/02/01 10:03:29;;;;;;;6.60;3.10;;;;;;;17.29;44.13;97459.00;6281604;22;20227;-84
2022/02/01 10:06:07;;;;;;;6.70;2.60;;;;;;;18.23;44.47;97601.34;6280456;22;20273;-87
2022/02/01 10:08:34;;;;;;;4.63;2.50;;;;;;;18.66;44.33;97685.53;6284459;22;20174;-86
2022/02/01 10:11:01;;;;;;;5.27;2.50;;;;;;;18.31;44.50;97620.34;6309695;22;20276;-86
2022/02/01 10:13:29;;;;;;;5.30;2.80;;;;;;;18.06;44.58;97577.72;6308849;22;20250;-85
2022/02/01 10:16:01;;;;;;;4.40;2.27;;;;;;;18.39;44.62;97647.03;6309723;22;20202;-86
2022/02/01 10:18:35;;;;;;;5.13;2.30;;;;;;;18.11;44.68;97598.25;6309482;22;20197;-86
2022/02/01 10:21:08;;;;;;;4.10;2.43;;;;;;;18.91;44.51;97736.69;6283026;22;20171;-86
2022/02/01 10:23:35;;;;;;;3.03;2.10;;;;;;;18.54;44.69;97662.09;6333320;22;20206;-85
2022/02/01 10:26:10;;;;;;;6.10;2.17;;;;;;;18.90;44.54;97730.72;6283391;22;20218;-86
2022/02/01 10:31:27;;;;;;;7.40;2.60;;;;;;;17.58;44.46;97491.69;6334868;22;20161;-86
2022/02/01 10:34:15;;;;;;;5.47;2.40;;;;;;;18.78;44.44;97683.50;6286266;22;20190;-85
2022/02/01 10:36:41;;;;;;;4.13;2.20;;;;;;;18.05;44.71;97558.19;6334688;22;20244;-86
2022/02/01 11:03:25;;;;;;;3.20;1.87;;;;;;;11.97;44.83;96548.97;6358496;22;20178;-89
2022/02/01 11:06:19;;;;;;;5.00;2.20;;;;;;;11.73;45.08;96515.03;6347540;22;20176;-91
2022/02/01 11:08:50;;;;;;;2.93;1.70;;;;;;;16.06;44.86;97169.22;6292649;22;20147;-90
2022/02/01 11:12:31;;;;;;;2.13;1.73;;;;;;;13.37;45.10;96704.69;6348360;22;20164;-90
2022/02/01 11:14:57;;;;;;;6.37;1.90;;;;;;;16.02;44.86;97140.31;6359250;22;20194;-85
2022/02/01 11:17:40;;;;;;;4.17;2.17;;;;;;;18.37;44.89;97538.31;6333883;22;20177;-86
2022/02/01 11:20:07;;;;;;;10.60;2.10;;;;;;;18.21;44.70;97512.25;6281925;22;20202;-83
2022/02/01 11:22:44;;;;;;;2.47;1.67;;;;;;;18.43;44.58;97534.41;6263206;22;20169;-85
2022/02/01 11:25:29;;;;;;;3.03;1.93;;;;;;;18.34;44.60;97515.28;6255713;22;20344;-86
2022/02/01 11:28:11;;;;;;;4.37;2.10;;;;;;;18.46;44.74;97541.28;6288303;22;20602;-86
2022/02/01 11:30:43;;;;;;;3.00;1.93;;;;;;;18.65;44.72;97559.06;6261918;22;20204;-86
2022/02/01 11:33:10;;;;;;;3.67;2.00;;;;;;;17.92;44.62;97415.22;6257074;22;20466;-86
2022/02/01 11:35:37;;;;;;;4.90;2.20;;;;;;;18.69;44.38;97549.06;6281469;22;20243;-85
2022/02/01 11:38:15;;;;;;;2.80;2.03;;;;;;;19.11;44.65;97616.13;6257440;22;20175;-86
2022/02/01 11:40:48;;;;;;;3.20;2.20;;;;;;;18.40;44.52;97485.94;6307008;22;20161;-85
2022/02/01 11:43:38;;;;;;;3.97;2.17;;;;;;;18.69;44.69;97515.97;6291667;22;20170;-84
2022/02/01 11:46:08;;;;;;;4.33;1.90;;;;;;;18.75;44.69;97511.13;6282648;22;20191;-85
2022/02/01 11:48:39;;;;;;;2.70;1.80;;;;;;;18.47;44.72;97457.38;6257376;22;20154;-83
2022/02/01 11:51:12;;;;;;;3.47;2.10;;;;;;;18.68;44.50;97496.41;6283097;22;20186;-88
2022/02/01 11:53:41;;;;;;;2.93;2.00;;;;;;;18.43;44.32;97449.56;6256534;22;20283;-86
2022/02/01 11:59:17;;;;;;;3.97;2.20;;;;;;;13.63;44.48;96625.13;6333636;22;20166;-90
2022/02/01 12:01:52;;;;;;;3.27;1.77;;;;;;;14.93;44.40;96826.47;6369269;22;20203;-89
2022/02/01 12:04:19;;;;;;;3.33;2.03;;;;;;;13.59;44.23;96679.66;6291693;22;20169;-89
2022/02/01 12:07:08;;;;;;;4.37;1.90;;;;;;;17.37;44.58;97245.97;6317814;22;20147;-89
2022/02/01 12:10:20;;;;;;;3.30;1.77;;;;;;;11.95;44.69;96308.91;6367731;22;20159;-91
2022/02/01 12:13:06;;;;;;;3.77;1.80;;;;;;;16.82;44.78;97175.97;6322010;22;20142;-89
2022/02/01 12:16:13;;;;;;;2.97;1.80;;;;;;;19.12;44.96;97539.78;6291309;22;20165;-89
2022/02/01 12:22:55;;;;;;;3.80;2.10;;;;;;;13.27;44.67;96552.81;6369329;22;20172;-90
